Tulln, Austria
Current Conditions -  °F | °C
As of 8:20 AM on Monday 24 Nov 2014 (Local Time) from LOXT Reporting Station
Haze Haze  
Wind Chill: 34°   Ceiling: 900
Heat Index: 39°   Visibility: 3mi
Dew Point: 36°   Wind: 7mph
Humidity: 87%   Direction: 130°SE
Pressure: 30.27"   Gusts: NA
Location:  48.33°N, 16.06°E
Report Text: LOXT 240620Z 13006KT 5000 BR FEW007ST BKN009ST 04/02 Q1025 TEMPO 4000 BKN007 RMK OVC
Loading
Personal Weather Stations






























Interactive Weather Map New forecast layout! Learn more

10-Day Weather Forecast

Advertisements
Track Severe Weather on mobile